sensor_id;sensor_type;location;lat;lon;timestamp;temperature;humidity
421;DHT22;63667;49.046;8.468;2022-09-29T00:01:14;6.50;99.60
421;DHT22;63667;49.046;8.468;2022-09-29T00:03:42;6.60;99.60
421;DHT22;63667;49.046;8.468;2022-09-29T00:06:29;6.50;99.60
421;DHT22;63667;49.046;8.468;2022-09-29T00:08:58;6.60;99.60
421;DHT22;63667;49.046;8.468;2022-09-29T00:11:25;6.50;99.60
421;DHT22;63667;49.046;8.468;2022-09-29T00:13:53;6.40;99.60
421;DHT22;63667;49.046;8.468;2022-09-29T00:16:21;6.30;99.60
421;DHT22;63667;49.046;8.468;2022-09-29T00:18:48;6.30;99.60
421;DHT22;63667;49.046;8.468;2022-09-29T00:21:17;6.30;99.60
421;DHT22;63667;49.046;8.468;2022-09-29T00:23:48;6.30;99.60
421;DHT22;63667;49.046;8.468;2022-09-29T00:26:21;6.40;99.60
421;DHT22;63667;49.046;8.468;2022-09-29T00:28:53;6.40;99.60
421;DHT22;63667;49.046;8.468;2022-09-29T00:31:27;6.50;99.60
421;DHT22;63667;49.046;8.468;2022-09-29T00:33:55;6.50;99.60
421;DHT22;63667;49.046;8.468;2022-09-29T00:36:24;6.60;99.60
421;DHT22;63667;49.046;8.468;2022-09-29T00:38:53;6.50;99.60
421;DHT22;63667;49.046;8.468;2022-09-29T00:41:22;6.50;99.60
421;DHT22;63667;49.046;8.468;2022-09-29T00:51:45;6.90;99.60
421;DHT22;63667;49.046;8.468;2022-09-29T00:54:13;6.90;99.60
421;DHT22;63667;49.046;8.468;2022-09-29T00:56:43;6.90;99.60
421;DHT22;63667;49.046;8.468;2022-09-29T00:59:15;6.90;99.60
421;DHT22;63667;49.046;8.468;2022-09-29T01:01:44;6.90;99.60
421;DHT22;63667;49.046;8.468;2022-09-29T01:04:16;6.90;99.60
421;DHT22;63667;49.046;8.468;2022-09-29T01:06:48;6.90;99.60
421;DHT22;63667;49.046;8.468;2022-09-29T01:09:18;7.00;99.60
421;DHT22;63667;49.046;8.468;2022-09-29T01:11:46;7.00;99.60
421;DHT22;63667;49.046;8.468;2022-09-29T01:14:15;7.00;99.60
421;DHT22;63667;49.046;8.468;2022-09-29T01:16:43;7.00;99.60
421;DHT22;63667;49.046;8.468;2022-09-29T01:19:40;7.00;99.60
421;DHT22;63667;49.046;8.468;2022-09-29T01:25:00;7.20;99.60
421;DHT22;63667;49.046;8.468;2022-09-29T01:30:22;7.20;99.60
421;DHT22;63667;49.046;8.468;2022-09-29T01:33:03;7.20;99.60
421;DHT22;63667;49.046;8.468;2022-09-29T01:35:56;7.20;99.60
421;DHT22;63667;49.046;8.468;2022-09-29T01:41:48;7.20;99.60
421;DHT22;63667;49.046;8.468;2022-09-29T01:44:20;7.30;99.60
421;DHT22;63667;49.046;8.468;2022-09-29T01:47:06;7.30;99.60
421;DHT22;63667;49.046;8.468;2022-09-29T01:49:39;7.30;99.60
421;DHT22;63667;49.046;8.468;2022-09-29T01:52:13;7.30;99.60
421;DHT22;63667;49.046;8.468;2022-09-29T01:54:51;7.30;99.60
421;DHT22;63667;49.046;8.468;2022-09-29T01:57:37;7.30;99.60
421;DHT22;63667;49.046;8.468;2022-09-29T02:00:08;7.30;99.60
421;DHT22;63667;49.046;8.468;2022-09-29T02:02:53;7.30;99.60
421;DHT22;63667;49.046;8.468;2022-09-29T02:05:45;7.30;99.60
421;DHT22;63667;49.046;8.468;2022-09-29T02:08:39;7.20;99.60
421;DHT22;63667;49.046;8.468;2022-09-29T02:11:10;7.10;99.60
421;DHT22;63667;49.046;8.468;2022-09-29T02:14:04;7.10;99.60
421;DHT22;63667;49.046;8.468;2022-09-29T02:16:45;7.20;99.60
421;DHT22;63667;49.046;8.468;2022-09-29T02:19:20;7.20;99.60
421;DHT22;63667;49.046;8.468;2022-09-29T02:21:48;7.20;99.60
421;DHT22;63667;49.046;8.468;2022-09-29T02:24:20;7.20;99.60
421;DHT22;63667;49.046;8.468;2022-09-29T02:26:47;7.20;99.60
421;DHT22;63667;49.046;8.468;2022-09-29T02:29:20;7.10;99.60
421;DHT22;63667;49.046;8.468;2022-09-29T02:31:47;7.20;99.60
421;DHT22;63667;49.046;8.468;2022-09-29T02:34:16;7.30;99.60
421;DHT22;63667;49.046;8.468;2022-09-29T02:37:08;7.40;99.60
421;DHT22;63667;49.046;8.468;2022-09-29T02:39:53;7.40;99.60
421;DHT22;63667;49.046;8.468;2022-09-29T02:51:14;7.30;99.60
421;DHT22;63667;49.046;8.468;2022-09-29T02:56:45;7.10;99.60
421;DHT22;63667;49.046;8.468;2022-09-29T02:59:37;7.00;99.60
421;DHT22;63667;49.046;8.468;2022-09-29T03:02:05;7.00;99.60
421;DHT22;63667;49.046;8.468;2022-09-29T03:04:32;7.00;99.60
421;DHT22;63667;49.046;8.468;2022-09-29T03:06:59;7.00;99.60
421;DHT22;63667;49.046;8.468;2022-09-29T03:09:27;7.00;99.60
421;DHT22;63667;49.046;8.468;2022-09-29T03:11:54;7.00;99.60
421;DHT22;63667;49.046;8.468;2022-09-29T03:14:22;7.00;99.60
421;DHT22;63667;49.046;8.468;2022-09-29T03:16:49;7.00;99.60
421;DHT22;63667;49.046;8.468;2022-09-29T03:19:18;6.90;99.60
421;DHT22;63667;49.046;8.468;2022-09-29T03:21:45;7.00;99.60
421;DHT22;63667;49.046;8.468;2022-09-29T03:24:13;6.90;99.60
421;DHT22;63667;49.046;8.468;2022-09-29T03:26:40;6.90;99.60
421;DHT22;63667;49.046;8.468;2022-09-29T03:29:08;7.00;99.60
421;DHT22;63667;49.046;8.468;2022-09-29T03:31:37;7.00;99.60
421;DHT22;63667;49.046;8.468;2022-09-29T03:34:05;7.00;99.60
421;DHT22;63667;49.046;8.468;2022-09-29T03:39:19;7.10;99.60
421;DHT22;63667;49.046;8.468;2022-09-29T03:41:47;7.00;99.60
421;DHT22;63667;49.046;8.468;2022-09-29T03:44:14;6.90;99.60
421;DHT22;63667;49.046;8.468;2022-09-29T03:46:42;7.00;99.60
421;DHT22;63667;49.046;8.468;2022-09-29T03:49:10;6.90;99.60
421;DHT22;63667;49.046;8.468;2022-09-29T03:51:38;7.10;99.60
421;DHT22;63667;49.046;8.468;2022-09-29T03:54:05;7.00;99.60
421;DHT22;63667;49.046;8.468;2022-09-29T03:56:33;6.90;99.60
421;DHT22;63667;49.046;8.468;2022-09-29T03:59:00;6.80;99.60
421;DHT22;63667;49.046;8.468;2022-09-29T04:01:28;6.80;99.60
421;DHT22;63667;49.046;8.468;2022-09-29T04:03:57;6.80;99.60
421;DHT22;63667;49.046;8.468;2022-09-29T04:06:25;6.80;99.60
421;DHT22;63667;49.046;8.468;2022-09-29T04:08:52;6.70;99.60
421;DHT22;63667;49.046;8.468;2022-09-29T04:11:20;6.50;99.60
421;DHT22;63667;49.046;8.468;2022-09-29T04:13:46;6.50;99.60
421;DHT22;63667;49.046;8.468;2022-09-29T04:16:13;6.80;99.60
421;DHT22;63667;49.046;8.468;2022-09-29T04:18:39;7.00;99.60
421;DHT22;63667;49.046;8.468;2022-09-29T04:21:07;7.10;99.60
421;DHT22;63667;49.046;8.468;2022-09-29T04:23:33;7.10;99.60
421;DHT22;63667;49.046;8.468;2022-09-29T04:26:00;7.10;99.60
421;DHT22;63667;49.046;8.468;2022-09-29T04:28:29;7.00;99.60
421;DHT22;63667;49.046;8.468;2022-09-29T04:30:56;7.00;99.60
421;DHT22;63667;49.046;8.468;2022-09-29T04:33:22;7.10;99.60
421;DHT22;63667;49.046;8.468;2022-09-29T04:35:48;7.10;99.60
421;DHT22;63667;49.046;8.468;2022-09-29T04:38:16;7.00;99.60
421;DHT22;63667;49.046;8.468;2022-09-29T04:40:43;7.20;99.60
421;DHT22;63667;49.046;8.468;2022-09-29T04:43:09;6.90;99.60
421;DHT22;63667;49.046;8.468;2022-09-29T04:45:35;6.70;99.60
421;DHT22;63667;49.046;8.468;2022-09-29T04:48:02;6.60;99.60
421;DHT22;63667;49.046;8.468;2022-09-29T04:50:29;6.70;99.60
421;DHT22;63667;49.046;8.468;2022-09-29T04:52:56;6.70;99.60
421;DHT22;63667;49.046;8.468;2022-09-29T04:55:22;6.70;99.60
421;DHT22;63667;49.046;8.468;2022-09-29T04:57:48;6.80;99.60
421;DHT22;63667;49.046;8.468;2022-09-29T05:00:14;6.90;99.60
421;DHT22;63667;49.046;8.468;2022-09-29T05:02:41;6.90;99.60
421;DHT22;63667;49.046;8.468;2022-09-29T05:05:08;6.80;99.60
421;DHT22;63667;49.046;8.468;2022-09-29T05:07:36;6.80;99.60
421;DHT22;63667;49.046;8.468;2022-09-29T05:10:04;6.70;99.60
421;DHT22;63667;49.046;8.468;2022-09-29T05:12:31;6.70;99.60
421;DHT22;63667;49.046;8.468;2022-09-29T05:14:59;6.70;99.60
421;DHT22;63667;49.046;8.468;2022-09-29T05:17:26;6.70;99.60
421;DHT22;63667;49.046;8.468;2022-09-29T05:19:52;6.80;99.60
421;DHT22;63667;49.046;8.468;2022-09-29T05:22:18;6.80;99.60
421;DHT22;63667;49.046;8.468;2022-09-29T05:24:52;6.80;99.60
421;DHT22;63667;49.046;8.468;2022-09-29T05:27:19;6.80;99.60
421;DHT22;63667;49.046;8.468;2022-09-29T05:29:46;6.80;99.60
421;DHT22;63667;49.046;8.468;2022-09-29T05:32:13;6.80;99.60
421;DHT22;63667;49.046;8.468;2022-09-29T05:34:39;6.70;99.60
421;DHT22;63667;49.046;8.468;2022-09-29T05:37:05;6.80;99.60
421;DHT22;63667;49.046;8.468;2022-09-29T05:39:32;6.80;99.60
421;DHT22;63667;49.046;8.468;2022-09-29T05:42:03;6.80;99.60
421;DHT22;63667;49.046;8.468;2022-09-29T05:44:32;6.90;99.60
421;DHT22;63667;49.046;8.468;2022-09-29T05:47:01;6.90;99.60
421;DHT22;63667;49.046;8.468;2022-09-29T05:49:28;6.90;99.60
421;DHT22;63667;49.046;8.468;2022-09-29T05:51:57;6.80;99.60
421;DHT22;63667;49.046;8.468;2022-09-29T05:54:24;6.90;99.60
421;DHT22;63667;49.046;8.468;2022-09-29T05:56:53;7.00;99.60
421;DHT22;63667;49.046;8.468;2022-09-29T05:59:19;7.20;99.60
421;DHT22;63667;49.046;8.468;2022-09-29T06:01:46;7.20;99.60
421;DHT22;63667;49.046;8.468;2022-09-29T06:04:13;7.30;99.60
421;DHT22;63667;49.046;8.468;2022-09-29T06:06:39;7.30;99.60
421;DHT22;63667;49.046;8.468;2022-09-29T06:09:07;7.30;99.60
421;DHT22;63667;49.046;8.468;2022-09-29T06:11:34;7.30;99.60
421;DHT22;63667;49.046;8.468;2022-09-29T06:14:02;7.50;99.60
421;DHT22;63667;49.046;8.468;2022-09-29T06:16:31;7.60;99.60
421;DHT22;63667;49.046;8.468;2022-09-29T06:19:00;7.60;99.60
421;DHT22;63667;49.046;8.468;2022-09-29T06:21:28;7.60;99.60
421;DHT22;63667;49.046;8.468;2022-09-29T06:23:56;7.70;99.60
421;DHT22;63667;49.046;8.468;2022-09-29T06:26:25;7.70;99.60
421;DHT22;63667;49.046;8.468;2022-09-29T06:28:53;7.80;99.60
421;DHT22;63667;49.046;8.468;2022-09-29T06:31:22;7.80;99.60
421;DHT22;63667;49.046;8.468;2022-09-29T06:33:50;7.90;99.60
421;DHT22;63667;49.046;8.468;2022-09-29T06:36:19;8.00;99.60
421;DHT22;63667;49.046;8.468;2022-09-29T06:39:11;8.10;99.60
421;DHT22;63667;49.046;8.468;2022-09-29T06:41:40;8.40;99.60
421;DHT22;63667;49.046;8.468;2022-09-29T06:44:07;8.50;99.60
421;DHT22;63667;49.046;8.468;2022-09-29T06:46:35;8.60;99.60
421;DHT22;63667;49.046;8.468;2022-09-29T06:49:02;8.70;99.60
421;DHT22;63667;49.046;8.468;2022-09-29T06:51:31;8.80;99.60
421;DHT22;63667;49.046;8.468;2022-09-29T06:53:59;8.90;99.60
421;DHT22;63667;49.046;8.468;2022-09-29T06:56:26;9.10;99.60
421;DHT22;63667;49.046;8.468;2022-09-29T06:58:54;9.10;99.60
421;DHT22;63667;49.046;8.468;2022-09-29T07:01:22;9.20;99.60
421;DHT22;63667;49.046;8.468;2022-09-29T07:03:49;9.30;99.60
421;DHT22;63667;49.046;8.468;2022-09-29T07:06:17;9.60;99.60
421;DHT22;63667;49.046;8.468;2022-09-29T07:08:46;9.60;99.60
421;DHT22;63667;49.046;8.468;2022-09-29T07:11:14;9.60;99.60
421;DHT22;63667;49.046;8.468;2022-09-29T07:13:42;9.80;99.60
421;DHT22;63667;49.046;8.468;2022-09-29T07:16:11;9.80;99.60
421;DHT22;63667;49.046;8.468;2022-09-29T07:18:41;9.90;99.60
421;DHT22;63667;49.046;8.468;2022-09-29T07:21:10;9.80;99.60
421;DHT22;63667;49.046;8.468;2022-09-29T07:23:38;10.00;99.60
421;DHT22;63667;49.046;8.468;2022-09-29T07:26:07;10.10;99.60
421;DHT22;63667;49.046;8.468;2022-09-29T07:28:35;10.30;99.60
421;DHT22;63667;49.046;8.468;2022-09-29T07:31:22;10.40;99.60
421;DHT22;63667;49.046;8.468;2022-09-29T07:33:49;10.60;99.60
421;DHT22;63667;49.046;8.468;2022-09-29T07:36:18;10.80;99.60
421;DHT22;63667;49.046;8.468;2022-09-29T07:39:05;10.90;99.60
421;DHT22;63667;49.046;8.468;2022-09-29T07:41:33;11.00;99.60
421;DHT22;63667;49.046;8.468;2022-09-29T07:44:02;11.20;99.60
421;DHT22;63667;49.046;8.468;2022-09-29T07:46:28;11.30;99.60
421;DHT22;63667;49.046;8.468;2022-09-29T07:48:56;11.30;99.60
421;DHT22;63667;49.046;8.468;2022-09-29T07:51:24;11.30;99.60
421;DHT22;63667;49.046;8.468;2022-09-29T07:53:52;11.50;99.60
421;DHT22;63667;49.046;8.468;2022-09-29T07:56:21;11.60;99.60
421;DHT22;63667;49.046;8.468;2022-09-29T07:58:50;11.60;99.60
421;DHT22;63667;49.046;8.468;2022-09-29T08:01:18;11.80;99.60
421;DHT22;63667;49.046;8.468;2022-09-29T08:03:51;11.70;99.60
421;DHT22;63667;49.046;8.468;2022-09-29T08:06:21;11.80;99.60
421;DHT22;63667;49.046;8.468;2022-09-29T08:08:49;12.00;99.60
421;DHT22;63667;49.046;8.468;2022-09-29T08:11:19;11.80;99.60
421;DHT22;63667;49.046;8.468;2022-09-29T08:13:47;12.00;99.60
421;DHT22;63667;49.046;8.468;2022-09-29T08:16:16;12.10;99.60
421;DHT22;63667;49.046;8.468;2022-09-29T08:18:44;12.20;99.60
421;DHT22;63667;49.046;8.468;2022-09-29T08:21:11;12.40;99.60
421;DHT22;63667;49.046;8.468;2022-09-29T08:23:41;12.40;99.60
421;DHT22;63667;49.046;8.468;2022-09-29T08:26:18;12.50;99.60
421;DHT22;63667;49.046;8.468;2022-09-29T08:28:45;12.70;99.60
421;DHT22;63667;49.046;8.468;2022-09-29T08:31:16;12.80;99.60
421;DHT22;63667;49.046;8.468;2022-09-29T08:33:47;12.80;99.60
421;DHT22;63667;49.046;8.468;2022-09-29T08:36:16;13.10;99.60
421;DHT22;63667;49.046;8.468;2022-09-29T08:38:50;13.50;99.60
421;DHT22;63667;49.046;8.468;2022-09-29T08:41:52;13.40;99.60
421;DHT22;63667;49.046;8.468;2022-09-29T08:50:00;13.50;99.60
421;DHT22;63667;49.046;8.468;2022-09-29T08:52:41;13.80;99.60
421;DHT22;63667;49.046;8.468;2022-09-29T08:57:45;13.90;99.60
421;DHT22;63667;49.046;8.468;2022-09-29T09:00:13;13.90;99.60
421;DHT22;63667;49.046;8.468;2022-09-29T09:05:49;14.10;99.60
421;DHT22;63667;49.046;8.468;2022-09-29T09:22:57;14.90;99.60
421;DHT22;63667;49.046;8.468;2022-09-29T09:25:33;15.20;99.60
421;DHT22;63667;49.046;8.468;2022-09-29T09:28:39;14.70;99.60
421;DHT22;63667;49.046;8.468;2022-09-29T09:31:17;15.10;99.60
421;DHT22;63667;49.046;8.468;2022-09-29T09:34:10;15.80;99.60
421;DHT22;63667;49.046;8.468;2022-09-29T09:36:46;15.70;99.60
421;DHT22;63667;49.046;8.468;2022-09-29T09:42:57;15.90;99.60
421;DHT22;63667;49.046;8.468;2022-09-29T09:45:55;15.80;99.60
421;DHT22;63667;49.046;8.468;2022-09-29T09:48:43;15.50;99.60
421;DHT22;63667;49.046;8.468;2022-09-29T09:51:46;15.10;99.60
421;DHT22;63667;49.046;8.468;2022-09-29T09:54:36;15.00;99.60
421;DHT22;63667;49.046;8.468;2022-09-29T09:57:31;15.20;99.60
421;DHT22;63667;49.046;8.468;2022-09-29T10:00:45;15.30;99.60
421;DHT22;63667;49.046;8.468;2022-09-29T10:03:33;15.40;99.60
421;DHT22;63667;49.046;8.468;2022-09-29T10:06:43;15.60;99.60
421;DHT22;63667;49.046;8.468;2022-09-29T10:12:24;16.00;99.60
421;DHT22;63667;49.046;8.468;2022-09-29T10:15:19;16.20;99.60
421;DHT22;63667;49.046;8.468;2022-09-29T10:17:55;16.20;99.60
421;DHT22;63667;49.046;8.468;2022-09-29T10:20:37;16.70;99.60
421;DHT22;63667;49.046;8.468;2022-09-29T10:23:31;16.50;99.60
421;DHT22;63667;49.046;8.468;2022-09-29T10:26:19;16.60;99.60
421;DHT22;63667;49.046;8.468;2022-09-29T10:28:54;16.30;99.60
421;DHT22;63667;49.046;8.468;2022-09-29T10:31:29;16.10;99.60
421;DHT22;63667;49.046;8.468;2022-09-29T10:33:57;16.30;99.60
421;DHT22;63667;49.046;8.468;2022-09-29T10:36:28;16.50;99.60
421;DHT22;63667;49.046;8.468;2022-09-29T10:38:55;17.00;99.60
421;DHT22;63667;49.046;8.468;2022-09-29T10:41:24;17.30;99.60
421;DHT22;63667;49.046;8.468;2022-09-29T10:43:51;17.60;99.60
421;DHT22;63667;49.046;8.468;2022-09-29T10:46:37;17.80;99.60
421;DHT22;63667;49.046;8.468;2022-09-29T10:49:20;17.50;99.60
421;DHT22;63667;49.046;8.468;2022-09-29T10:52:05;17.10;99.60
421;DHT22;63667;49.046;8.468;2022-09-29T10:54:36;17.10;99.60
421;DHT22;63667;49.046;8.468;2022-09-29T10:57:13;16.20;99.60
421;DHT22;63667;49.046;8.468;2022-09-29T10:59:49;16.20;99.60
421;DHT22;63667;49.046;8.468;2022-09-29T11:02:36;16.30;99.60
421;DHT22;63667;49.046;8.468;2022-09-29T11:05:18;16.00;99.60
421;DHT22;63667;49.046;8.468;2022-09-29T11:07:48;15.90;99.60
421;DHT22;63667;49.046;8.468;2022-09-29T11:10:35;15.90;99.60
421;DHT22;63667;49.046;8.468;2022-09-29T11:15:50;16.30;99.60
421;DHT22;63667;49.046;8.468;2022-09-29T11:18:23;16.50;99.60
421;DHT22;63667;49.046;8.468;2022-09-29T11:26:46;16.90;99.60
421;DHT22;63667;49.046;8.468;2022-09-29T11:42:39;16.80;99.60
421;DHT22;63667;49.046;8.468;2022-09-29T11:45:15;16.70;99.60
421;DHT22;63667;49.046;8.468;2022-09-29T11:56:23;16.70;99.60
421;DHT22;63667;49.046;8.468;2022-09-29T12:13:25;16.80;99.60
421;DHT22;63667;49.046;8.468;2022-09-29T12:18:41;16.60;99.60
421;DHT22;63667;49.046;8.468;2022-09-29T12:21:20;16.60;99.60
421;DHT22;63667;49.046;8.468;2022-09-29T12:23:52;16.70;99.60
421;DHT22;63667;49.046;8.468;2022-09-29T12:26:22;16.50;99.60
421;DHT22;63667;49.046;8.468;2022-09-29T12:29:03;16.70;99.60
421;DHT22;63667;49.046;8.468;2022-09-29T12:31:35;16.70;99.60
421;DHT22;63667;49.046;8.468;2022-09-29T12:34:21;16.70;99.60
421;DHT22;63667;49.046;8.468;2022-09-29T12:42:35;17.00;99.60
421;DHT22;63667;49.046;8.468;2022-09-29T12:53:29;17.20;99.60
421;DHT22;63667;49.046;8.468;2022-09-29T12:56:09;17.30;99.60
421;DHT22;63667;49.046;8.468;2022-09-29T12:58:44;17.50;99.60
421;DHT22;63667;49.046;8.468;2022-09-29T13:01:31;17.40;99.60
421;DHT22;63667;49.046;8.468;2022-09-29T13:10:27;17.60;99.60
421;DHT22;63667;49.046;8.468;2022-09-29T13:13:37;17.50;99.60
421;DHT22;63667;49.046;8.468;2022-09-29T13:21:59;17.70;99.60
421;DHT22;63667;49.046;8.468;2022-09-29T13:24:42;17.60;99.60
421;DHT22;63667;49.046;8.468;2022-09-29T13:27:27;17.60;99.60
421;DHT22;63667;49.046;8.468;2022-09-29T13:33:09;17.80;99.60
421;DHT22;63667;49.046;8.468;2022-09-29T13:35:47;17.90;99.60
421;DHT22;63667;49.046;8.468;2022-09-29T13:38:36;17.70;99.60
421;DHT22;63667;49.046;8.468;2022-09-29T13:41:31;17.50;99.60
421;DHT22;63667;49.046;8.468;2022-09-29T13:44:19;17.40;99.60
421;DHT22;63667;49.046;8.468;2022-09-29T13:46:50;17.30;99.60
421;DHT22;63667;49.046;8.468;2022-09-29T13:51:48;18.00;99.60
421;DHT22;63667;49.046;8.468;2022-09-29T13:54:48;17.80;99.60
421;DHT22;63667;49.046;8.468;2022-09-29T13:57:22;17.80;99.60
421;DHT22;63667;49.046;8.468;2022-09-29T14:00:16;17.70;99.60
421;DHT22;63667;49.046;8.468;2022-09-29T14:02:46;17.70;99.60
421;DHT22;63667;49.046;8.468;2022-09-29T14:08:13;17.90;99.60
421;DHT22;63667;49.046;8.468;2022-09-29T14:10:51;17.50;99.60
421;DHT22;63667;49.046;8.468;2022-09-29T14:16:30;17.50;99.60
421;DHT22;63667;49.046;8.468;2022-09-29T14:21:53;17.30;99.60
421;DHT22;63667;49.046;8.468;2022-09-29T14:27:25;17.20;99.60
421;DHT22;63667;49.046;8.468;2022-09-29T14:30:11;17.10;99.60
421;DHT22;63667;49.046;8.468;2022-09-29T14:32:39;17.20;99.60
421;DHT22;63667;49.046;8.468;2022-09-29T14:35:32;16.80;99.60
421;DHT22;63667;49.046;8.468;2022-09-29T14:38:33;16.60;99.60
421;DHT22;63667;49.046;8.468;2022-09-29T14:43:41;16.40;99.60
421;DHT22;63667;49.046;8.468;2022-09-29T14:52:47;16.30;99.60
421;DHT22;63667;49.046;8.468;2022-09-29T14:55:30;16.40;99.60
421;DHT22;63667;49.046;8.468;2022-09-29T14:58:46;16.50;99.60
421;DHT22;63667;49.046;8.468;2022-09-29T15:01:28;16.40;99.60
421;DHT22;63667;49.046;8.468;2022-09-29T15:04:05;16.50;99.60
421;DHT22;63667;49.046;8.468;2022-09-29T15:06:48;16.40;99.60
421;DHT22;63667;49.046;8.468;2022-09-29T15:09:16;16.50;99.60
421;DHT22;63667;49.046;8.468;2022-09-29T15:25:33;16.30;99.60
421;DHT22;63667;49.046;8.468;2022-09-29T15:28:39;16.20;99.60
421;DHT22;63667;49.046;8.468;2022-09-29T15:31:18;16.00;99.60
421;DHT22;63667;49.046;8.468;2022-09-29T15:34:17;15.90;99.60
421;DHT22;63667;49.046;8.468;2022-09-29T15:37:22;16.00;99.60
421;DHT22;63667;49.046;8.468;2022-09-29T15:40:14;15.90;99.60
421;DHT22;63667;49.046;8.468;2022-09-29T15:43:00;15.90;99.60
421;DHT22;63667;49.046;8.468;2022-09-29T15:45:58;15.80;99.60
421;DHT22;63667;49.046;8.468;2022-09-29T15:49:09;15.80;99.60
421;DHT22;63667;49.046;8.468;2022-09-29T15:51:59;15.70;99.60
421;DHT22;63667;49.046;8.468;2022-09-29T15:55:04;15.60;99.60
421;DHT22;63667;49.046;8.468;2022-09-29T16:01:18;15.50;99.60
421;DHT22;63667;49.046;8.468;2022-09-29T16:04:24;15.40;99.60
421;DHT22;63667;49.046;8.468;2022-09-29T16:07:18;15.30;99.60
421;DHT22;63667;49.046;8.468;2022-09-29T16:09:47;15.20;99.60
421;DHT22;63667;49.046;8.468;2022-09-29T16:12:34;15.10;99.60
421;DHT22;63667;49.046;8.468;2022-09-29T16:18:01;14.90;99.60
421;DHT22;63667;49.046;8.468;2022-09-29T16:20:29;14.80;99.60
421;DHT22;63667;49.046;8.468;2022-09-29T16:23:27;14.80;99.60
421;DHT22;63667;49.046;8.468;2022-09-29T16:31:42;14.60;99.60
421;DHT22;63667;49.046;8.468;2022-09-29T16:36:47;14.80;99.60
421;DHT22;63667;49.046;8.468;2022-09-29T16:39:16;14.80;99.60
421;DHT22;63667;49.046;8.468;2022-09-29T16:41:47;14.80;99.60
421;DHT22;63667;49.046;8.468;2022-09-29T16:49:32;15.00;99.60
421;DHT22;63667;49.046;8.468;2022-09-29T16:52:14;15.00;99.60
421;DHT22;63667;49.046;8.468;2022-09-29T16:54:44;15.20;99.60
421;DHT22;63667;49.046;8.468;2022-09-29T16:57:28;15.00;99.60
421;DHT22;63667;49.046;8.468;2022-09-29T17:00:01;14.90;99.60
421;DHT22;63667;49.046;8.468;2022-09-29T17:02:33;14.90;99.60
421;DHT22;63667;49.046;8.468;2022-09-29T17:05:01;14.70;99.60
421;DHT22;63667;49.046;8.468;2022-09-29T17:07:31;14.60;99.60
421;DHT22;63667;49.046;8.468;2022-09-29T17:10:06;13.40;99.60
421;DHT22;63667;49.046;8.468;2022-09-29T17:12:40;13.00;99.60
421;DHT22;63667;49.046;8.468;2022-09-29T17:15:16;12.80;99.60
421;DHT22;63667;49.046;8.468;2022-09-29T17:17:47;12.50;99.60
421;DHT22;63667;49.046;8.468;2022-09-29T17:20:20;12.20;99.60
421;DHT22;63667;49.046;8.468;2022-09-29T17:22:54;11.90;99.60
421;DHT22;63667;49.046;8.468;2022-09-29T17:25:23;11.70;99.60
421;DHT22;63667;49.046;8.468;2022-09-29T17:27:51;11.40;99.60
421;DHT22;63667;49.046;8.468;2022-09-29T17:30:38;11.10;99.60
421;DHT22;63667;49.046;8.468;2022-09-29T17:33:07;11.00;99.60
421;DHT22;63667;49.046;8.468;2022-09-29T17:35:37;10.90;99.60
421;DHT22;63667;49.046;8.468;2022-09-29T17:38:05;10.80;99.60
421;DHT22;63667;49.046;8.468;2022-09-29T17:43:08;10.90;99.60
421;DHT22;63667;49.046;8.468;2022-09-29T17:45:36;10.80;99.60
421;DHT22;63667;49.046;8.468;2022-09-29T17:48:08;11.00;99.60
421;DHT22;63667;49.046;8.468;2022-09-29T17:50:56;11.00;99.60
421;DHT22;63667;49.046;8.468;2022-09-29T17:53:25;11.10;99.60
421;DHT22;63667;49.046;8.468;2022-09-29T17:55:56;11.20;99.60
421;DHT22;63667;49.046;8.468;2022-09-29T17:58:23;11.40;99.60
421;DHT22;63667;49.046;8.468;2022-09-29T18:00:53;11.40;99.60
421;DHT22;63667;49.046;8.468;2022-09-29T18:03:22;11.60;99.60
421;DHT22;63667;49.046;8.468;2022-09-29T18:05:54;11.60;99.60
421;DHT22;63667;49.046;8.468;2022-09-29T18:08:26;11.60;99.60
421;DHT22;63667;49.046;8.468;2022-09-29T18:10:55;11.60;99.60
421;DHT22;63667;49.046;8.468;2022-09-29T18:13:23;11.60;99.60
421;DHT22;63667;49.046;8.468;2022-09-29T18:15:53;11.50;99.60
421;DHT22;63667;49.046;8.468;2022-09-29T18:18:21;11.30;99.60
421;DHT22;63667;49.046;8.468;2022-09-29T18:20:48;11.30;99.60
421;DHT22;63667;49.046;8.468;2022-09-29T18:23:17;11.40;99.60
421;DHT22;63667;49.046;8.468;2022-09-29T18:25:45;11.50;99.60
421;DHT22;63667;49.046;8.468;2022-09-29T18:28:13;11.50;99.60
421;DHT22;63667;49.046;8.468;2022-09-29T18:30:42;11.40;99.60
421;DHT22;63667;49.046;8.468;2022-09-29T18:33:17;11.40;99.60
421;DHT22;63667;49.046;8.468;2022-09-29T18:35:50;11.50;99.60
421;DHT22;63667;49.046;8.468;2022-09-29T18:38:16;11.50;99.60
421;DHT22;63667;49.046;8.468;2022-09-29T18:40:44;11.50;99.60
421;DHT22;63667;49.046;8.468;2022-09-29T18:43:13;11.50;99.60
421;DHT22;63667;49.046;8.468;2022-09-29T18:45:42;11.50;99.60
421;DHT22;63667;49.046;8.468;2022-09-29T18:48:12;11.50;99.60
421;DHT22;63667;49.046;8.468;2022-09-29T18:50:42;11.50;99.60
421;DHT22;63667;49.046;8.468;2022-09-29T18:53:09;11.50;99.60
421;DHT22;63667;49.046;8.468;2022-09-29T18:55:37;11.40;99.60
421;DHT22;63667;49.046;8.468;2022-09-29T18:58:04;11.40;99.60
421;DHT22;63667;49.046;8.468;2022-09-29T19:00:38;11.40;99.60
421;DHT22;63667;49.046;8.468;2022-09-29T19:03:07;11.40;99.60
421;DHT22;63667;49.046;8.468;2022-09-29T19:05:35;11.40;99.60
421;DHT22;63667;49.046;8.468;2022-09-29T19:08:05;11.40;99.60
421;DHT22;63667;49.046;8.468;2022-09-29T19:10:35;11.40;99.60
421;DHT22;63667;49.046;8.468;2022-09-29T19:13:05;11.40;99.60
421;DHT22;63667;49.046;8.468;2022-09-29T19:15:37;11.50;99.60
421;DHT22;63667;49.046;8.468;2022-09-29T19:18:07;11.60;99.60
421;DHT22;63667;49.046;8.468;2022-09-29T19:20:35;11.60;99.60
421;DHT22;63667;49.046;8.468;2022-09-29T19:23:02;11.60;99.60
421;DHT22;63667;49.046;8.468;2022-09-29T19:25:34;11.60;99.60
421;DHT22;63667;49.046;8.468;2022-09-29T19:28:02;11.60;99.60
421;DHT22;63667;49.046;8.468;2022-09-29T19:30:35;11.60;99.60
421;DHT22;63667;49.046;8.468;2022-09-29T19:33:07;11.60;99.60
421;DHT22;63667;49.046;8.468;2022-09-29T19:35:34;11.60;99.60
421;DHT22;63667;49.046;8.468;2022-09-29T19:38:02;11.50;99.60
421;DHT22;63667;49.046;8.468;2022-09-29T19:40:32;11.50;99.60
421;DHT22;63667;49.046;8.468;2022-09-29T19:43:01;11.50;99.60
421;DHT22;63667;49.046;8.468;2022-09-29T19:45:36;11.50;99.60
421;DHT22;63667;49.046;8.468;2022-09-29T19:48:09;11.40;99.60
421;DHT22;63667;49.046;8.468;2022-09-29T19:50:36;11.40;99.60
421;DHT22;63667;49.046;8.468;2022-09-29T19:53:23;11.50;99.60
421;DHT22;63667;49.046;8.468;2022-09-29T19:55:50;11.50;99.60
421;DHT22;63667;49.046;8.468;2022-09-29T19:58:18;11.60;99.60
421;DHT22;63667;49.046;8.468;2022-09-29T20:00:46;11.50;99.60
421;DHT22;63667;49.046;8.468;2022-09-29T20:03:13;11.40;99.60
421;DHT22;63667;49.046;8.468;2022-09-29T20:05:40;11.40;99.60
421;DHT22;63667;49.046;8.468;2022-09-29T20:08:07;11.20;99.60
421;DHT22;63667;49.046;8.468;2022-09-29T20:10:41;11.20;99.60